Nevada City, California
Current Conditions -  °F | °C
As of 10:20 AM on Thursday 18 Dec 2014 (Local Time) from KGOO Reporting Station
Broken Clouds Broken Clouds  
Wind Chill: 45°   Ceiling: 4600
Heat Index: 45°   Visibility: 10mi
Dew Point: 37°   Wind: 0mph
Humidity: 76%   Direction: NA
Pressure: 30.19"   Gusts: NA
Location:  39.26°N, 121.02°W
Report Text: KGOO 181820Z AUTO 00000KT 10SM BKN046 07/03 A3019 RMK AO1
Loading
Personal Weather Stations






























Interactive Weather Map New forecast layout! Learn more

10-Day Weather Forecast

Advertisements
Track Severe Weather on mobile